Belgrade, Maine
Current Conditions -  °F | °C
As of 2:53 AM on Wednesday 22 Oct 2014 (Local Time) from KAUG Reporting Station
Light Rain Light Rain  
Wind Chill: 37°   Ceiling: 400
Heat Index: 44°   Visibility: 6mi
Dew Point: 42°   Wind: 14mph
Humidity: 93%   Direction: 30°NNE
Pressure: 30.12"   Gusts: NA
Location:  44.45°N, 69.83°W
Report Text: KAUG 220653Z AUTO 03012KT 6SM -RA BR OVC004 07/06 A3012 RMK AO2 SLP202 P0006 T00670056
Loading
Personal Weather Stations






























Interactive Weather Map
Tropical Storm Tracking
New forecast layout! Learn more

10-Day Weather Forecast

Advertisements
Track Severe Weather on mobile